sensor_id;sensor_type;location;lat;lon;timestamp;P1;durP1;ratioP1;P2;durP2;ratioP2
6111;SDS011;3086;48.802;9.394;2022-11-12T00:00:00;11.97;;;8.30;;
6111;SDS011;3086;48.802;9.394;2022-11-12T00:03:23;11.90;;;8.17;;
6111;SDS011;3086;48.802;9.394;2022-11-12T00:06:45;12.07;;;8.13;;
6111;SDS011;3086;48.802;9.394;2022-11-12T00:10:07;10.57;;;8.63;;
6111;SDS011;3086;48.802;9.394;2022-11-12T00:13:32;12.40;;;8.50;;
6111;SDS011;3086;48.802;9.394;2022-11-12T00:17:00;11.23;;;9.37;;
6111;SDS011;3086;48.802;9.394;2022-11-12T00:20:25;11.37;;;9.03;;
6111;SDS011;3086;48.802;9.394;2022-11-12T00:23:47;10.90;;;8.47;;
6111;SDS011;3086;48.802;9.394;2022-11-12T00:27:09;10.23;;;8.77;;
6111;SDS011;3086;48.802;9.394;2022-11-12T00:30:31;13.77;;;8.60;;
6111;SDS011;3086;48.802;9.394;2022-11-12T00:33:53;9.47;;;7.97;;
6111;SDS011;3086;48.802;9.394;2022-11-12T00:37:16;12.17;;;9.20;;
6111;SDS011;3086;48.802;9.394;2022-11-12T00:40:39;14.17;;;8.33;;
6111;SDS011;3086;48.802;9.394;2022-11-12T00:44:02;15.83;;;9.50;;
6111;SDS011;3086;48.802;9.394;2022-11-12T00:47:23;11.63;;;9.57;;
6111;SDS011;3086;48.802;9.394;2022-11-12T00:50:45;10.77;;;9.30;;
6111;SDS011;3086;48.802;9.394;2022-11-12T00:54:08;11.53;;;9.37;;
6111;SDS011;3086;48.802;9.394;2022-11-12T00:57:29;11.43;;;8.97;;
6111;SDS011;3086;48.802;9.394;2022-11-12T01:00:51;14.90;;;10.27;;
6111;SDS011;3086;48.802;9.394;2022-11-12T01:04:13;14.60;;;9.43;;
6111;SDS011;3086;48.802;9.394;2022-11-12T01:07:34;15.00;;;9.70;;
6111;SDS011;3086;48.802;9.394;2022-11-12T01:11:09;13.20;;;10.27;;
6111;SDS011;3086;48.802;9.394;2022-11-12T01:14:32;10.53;;;9.33;;
6111;SDS011;3086;48.802;9.394;2022-11-12T01:17:54;12.70;;;9.10;;
6111;SDS011;3086;48.802;9.394;2022-11-12T01:21:19;10.27;;;9.20;;
6111;SDS011;3086;48.802;9.394;2022-11-12T01:24:41;12.00;;;9.00;;
6111;SDS011;3086;48.802;9.394;2022-11-12T01:28:04;11.20;;;9.20;;
6111;SDS011;3086;48.802;9.394;2022-11-12T01:31:26;11.30;;;8.67;;
6111;SDS011;3086;48.802;9.394;2022-11-12T01:34:49;13.97;;;9.67;;
6111;SDS011;3086;48.802;9.394;2022-11-12T01:38:12;13.67;;;10.07;;
6111;SDS011;3086;48.802;9.394;2022-11-12T01:41:35;10.87;;;9.50;;
6111;SDS011;3086;48.802;9.394;2022-11-12T01:44:59;12.60;;;9.30;;
6111;SDS011;3086;48.802;9.394;2022-11-12T01:48:22;14.43;;;10.10;;
6111;SDS011;3086;48.802;9.394;2022-11-12T01:51:47;16.10;;;10.60;;
6111;SDS011;3086;48.802;9.394;2022-11-12T01:55:11;12.53;;;9.97;;
6111;SDS011;3086;48.802;9.394;2022-11-12T01:58:34;13.77;;;10.40;;
6111;SDS011;3086;48.802;9.394;2022-11-12T02:01:58;14.90;;;11.43;;
6111;SDS011;3086;48.802;9.394;2022-11-12T02:05:19;14.00;;;10.63;;
6111;SDS011;3086;48.802;9.394;2022-11-12T02:08:42;13.27;;;10.03;;
6111;SDS011;3086;48.802;9.394;2022-11-12T02:12:08;12.50;;;10.10;;
6111;SDS011;3086;48.802;9.394;2022-11-12T02:15:50;14.27;;;10.23;;
6111;SDS011;3086;48.802;9.394;2022-11-12T02:19:14;11.70;;;8.97;;
6111;SDS011;3086;48.802;9.394;2022-11-12T02:22:37;14.03;;;9.63;;
6111;SDS011;3086;48.802;9.394;2022-11-12T02:25:59;13.27;;;10.10;;
6111;SDS011;3086;48.802;9.394;2022-11-12T02:29:21;11.83;;;8.97;;
6111;SDS011;3086;48.802;9.394;2022-11-12T02:32:43;11.90;;;9.70;;
6111;SDS011;3086;48.802;9.394;2022-11-12T02:36:04;13.20;;;9.07;;
6111;SDS011;3086;48.802;9.394;2022-11-12T02:39:27;11.60;;;9.43;;
6111;SDS011;3086;48.802;9.394;2022-11-12T02:42:49;11.67;;;9.87;;
6111;SDS011;3086;48.802;9.394;2022-11-12T02:46:10;11.23;;;8.63;;
6111;SDS011;3086;48.802;9.394;2022-11-12T02:49:32;14.43;;;9.80;;
6111;SDS011;3086;48.802;9.394;2022-11-12T02:52:54;11.27;;;8.83;;
6111;SDS011;3086;48.802;9.394;2022-11-12T02:56:23;12.10;;;9.33;;
6111;SDS011;3086;48.802;9.394;2022-11-12T02:59:44;11.17;;;9.07;;
6111;SDS011;3086;48.802;9.394;2022-11-12T03:03:06;10.07;;;8.77;;
6111;SDS011;3086;48.802;9.394;2022-11-12T03:06:28;9.70;;;8.67;;
6111;SDS011;3086;48.802;9.394;2022-11-12T03:09:50;10.10;;;8.40;;
6111;SDS011;3086;48.802;9.394;2022-11-12T03:13:13;11.60;;;9.60;;
6111;SDS011;3086;48.802;9.394;2022-11-12T03:16:35;10.07;;;8.40;;
6111;SDS011;3086;48.802;9.394;2022-11-12T03:19:57;10.13;;;8.40;;
6111;SDS011;3086;48.802;9.394;2022-11-12T03:23:19;8.90;;;7.97;;
6111;SDS011;3086;48.802;9.394;2022-11-12T03:26:42;9.23;;;8.20;;
6111;SDS011;3086;48.802;9.394;2022-11-12T03:30:06;10.40;;;8.00;;
6111;SDS011;3086;48.802;9.394;2022-11-12T03:33:28;9.40;;;7.30;;
6111;SDS011;3086;48.802;9.394;2022-11-12T03:36:50;10.37;;;7.87;;
6111;SDS011;3086;48.802;9.394;2022-11-12T03:40:12;10.43;;;8.73;;
6111;SDS011;3086;48.802;9.394;2022-11-12T03:43:34;10.37;;;7.87;;
6111;SDS011;3086;48.802;9.394;2022-11-12T03:46:57;9.23;;;8.33;;
6111;SDS011;3086;48.802;9.394;2022-11-12T03:50:20;8.43;;;7.37;;
6111;SDS011;3086;48.802;9.394;2022-11-12T03:53:46;8.37;;;7.27;;
6111;SDS011;3086;48.802;9.394;2022-11-12T03:57:07;8.67;;;7.77;;
6111;SDS011;3086;48.802;9.394;2022-11-12T04:00:30;8.43;;;7.53;;
6111;SDS011;3086;48.802;9.394;2022-11-12T04:04:01;9.13;;;8.20;;
6111;SDS011;3086;48.802;9.394;2022-11-12T04:07:22;9.83;;;8.03;;
6111;SDS011;3086;48.802;9.394;2022-11-12T04:11:02;8.80;;;7.83;;
6111;SDS011;3086;48.802;9.394;2022-11-12T04:14:25;8.97;;;8.07;;
6111;SDS011;3086;48.802;9.394;2022-11-12T04:17:47;9.23;;;8.40;;
6111;SDS011;3086;48.802;9.394;2022-11-12T04:21:29;10.17;;;7.80;;
6111;SDS011;3086;48.802;9.394;2022-11-12T04:25:09;9.20;;;7.73;;
6111;SDS011;3086;48.802;9.394;2022-11-12T04:28:49;10.77;;;8.57;;
6111;SDS011;3086;48.802;9.394;2022-11-12T04:32:29;9.40;;;8.23;;
6111;SDS011;3086;48.802;9.394;2022-11-12T04:35:51;9.80;;;8.03;;
6111;SDS011;3086;48.802;9.394;2022-11-12T04:39:14;8.20;;;7.40;;
6111;SDS011;3086;48.802;9.394;2022-11-12T04:42:36;8.50;;;7.70;;
6111;SDS011;3086;48.802;9.394;2022-11-12T04:46:25;10.33;;;9.13;;
6111;SDS011;3086;48.802;9.394;2022-11-12T04:49:47;10.13;;;8.73;;
6111;SDS011;3086;48.802;9.394;2022-11-12T04:53:09;11.10;;;7.90;;
6111;SDS011;3086;48.802;9.394;2022-11-12T04:56:35;11.40;;;9.47;;
6111;SDS011;3086;48.802;9.394;2022-11-12T04:59:56;9.60;;;8.60;;
6111;SDS011;3086;48.802;9.394;2022-11-12T05:03:18;10.57;;;8.13;;
6111;SDS011;3086;48.802;9.394;2022-11-12T05:06:40;13.60;;;9.83;;
6111;SDS011;3086;48.802;9.394;2022-11-12T05:10:11;10.97;;;9.00;;
6111;SDS011;3086;48.802;9.394;2022-11-12T05:13:34;9.77;;;8.33;;
6111;SDS011;3086;48.802;9.394;2022-11-12T05:16:59;9.70;;;8.70;;
6111;SDS011;3086;48.802;9.394;2022-11-12T05:20:21;10.27;;;9.03;;
6111;SDS011;3086;48.802;9.394;2022-11-12T05:23:49;10.17;;;8.73;;
6111;SDS011;3086;48.802;9.394;2022-11-12T05:27:12;9.90;;;8.53;;
6111;SDS011;3086;48.802;9.394;2022-11-12T05:30:37;10.03;;;8.47;;
6111;SDS011;3086;48.802;9.394;2022-11-12T05:34:02;9.70;;;8.67;;
6111;SDS011;3086;48.802;9.394;2022-11-12T05:37:32;9.63;;;8.63;;
6111;SDS011;3086;48.802;9.394;2022-11-12T05:40:56;9.10;;;8.17;;
6111;SDS011;3086;48.802;9.394;2022-11-12T05:44:19;8.87;;;7.97;;
6111;SDS011;3086;48.802;9.394;2022-11-12T05:47:42;8.67;;;7.77;;
6111;SDS011;3086;48.802;9.394;2022-11-12T05:51:04;9.40;;;8.30;;
6111;SDS011;3086;48.802;9.394;2022-11-12T05:54:26;11.13;;;7.70;;
6111;SDS011;3086;48.802;9.394;2022-11-12T05:57:47;6.93;;;6.33;;
6111;SDS011;3086;48.802;9.394;2022-11-12T06:01:09;11.10;;;7.47;;
6111;SDS011;3086;48.802;9.394;2022-11-12T06:04:32;10.50;;;7.97;;
6111;SDS011;3086;48.802;9.394;2022-11-12T06:07:53;8.17;;;7.30;;
6111;SDS011;3086;48.802;9.394;2022-11-12T06:11:15;8.27;;;7.13;;
6111;SDS011;3086;48.802;9.394;2022-11-12T06:14:37;11.77;;;8.00;;
6111;SDS011;3086;48.802;9.394;2022-11-12T06:17:59;8.40;;;7.50;;
6111;SDS011;3086;48.802;9.394;2022-11-12T06:21:22;10.83;;;7.67;;
6111;SDS011;3086;48.802;9.394;2022-11-12T06:24:46;10.17;;;7.90;;
6111;SDS011;3086;48.802;9.394;2022-11-12T06:28:08;8.47;;;7.13;;
6111;SDS011;3086;48.802;9.394;2022-11-12T06:31:33;9.97;;;7.60;;
6111;SDS011;3086;48.802;9.394;2022-11-12T06:34:55;8.43;;;7.33;;
6111;SDS011;3086;48.802;9.394;2022-11-12T06:38:18;9.33;;;7.70;;
6111;SDS011;3086;48.802;9.394;2022-11-12T06:41:39;9.37;;;8.13;;
6111;SDS011;3086;48.802;9.394;2022-11-12T06:45:01;9.03;;;7.77;;
6111;SDS011;3086;48.802;9.394;2022-11-12T06:48:23;10.13;;;8.57;;
6111;SDS011;3086;48.802;9.394;2022-11-12T06:51:45;9.30;;;7.63;;
6111;SDS011;3086;48.802;9.394;2022-11-12T06:55:08;9.27;;;7.80;;
6111;SDS011;3086;48.802;9.394;2022-11-12T06:58:29;8.37;;;7.57;;
6111;SDS011;3086;48.802;9.394;2022-11-12T07:01:51;8.97;;;7.87;;
6111;SDS011;3086;48.802;9.394;2022-11-12T07:05:13;9.53;;;8.43;;
6111;SDS011;3086;48.802;9.394;2022-11-12T07:08:34;10.87;;;8.27;;
6111;SDS011;3086;48.802;9.394;2022-11-12T07:11:57;10.10;;;8.27;;
6111;SDS011;3086;48.802;9.394;2022-11-12T07:15:19;13.87;;;8.37;;
6111;SDS011;3086;48.802;9.394;2022-11-12T07:18:40;10.67;;;8.63;;
6111;SDS011;3086;48.802;9.394;2022-11-12T07:22:02;11.53;;;8.70;;
6111;SDS011;3086;48.802;9.394;2022-11-12T07:25:24;10.13;;;8.00;;
6111;SDS011;3086;48.802;9.394;2022-11-12T07:28:47;12.63;;;7.63;;
6111;SDS011;3086;48.802;9.394;2022-11-12T07:32:09;10.17;;;8.00;;
6111;SDS011;3086;48.802;9.394;2022-11-12T07:35:31;9.10;;;7.30;;
6111;SDS011;3086;48.802;9.394;2022-11-12T07:38:53;15.63;;;8.03;;
6111;SDS011;3086;48.802;9.394;2022-11-12T07:42:15;13.17;;;10.77;;
6111;SDS011;3086;48.802;9.394;2022-11-12T07:45:38;15.03;;;10.00;;
6111;SDS011;3086;48.802;9.394;2022-11-12T07:48:59;11.97;;;9.80;;
6111;SDS011;3086;48.802;9.394;2022-11-12T07:52:21;11.63;;;10.40;;
6111;SDS011;3086;48.802;9.394;2022-11-12T07:55:46;22.07;;;14.10;;
6111;SDS011;3086;48.802;9.394;2022-11-12T07:59:13;11.23;;;7.43;;
6111;SDS011;3086;48.802;9.394;2022-11-12T08:02:36;10.07;;;7.03;;
6111;SDS011;3086;48.802;9.394;2022-11-12T08:05:58;8.10;;;6.13;;
6111;SDS011;3086;48.802;9.394;2022-11-12T08:09:20;8.63;;;6.90;;
6111;SDS011;3086;48.802;9.394;2022-11-12T08:12:41;6.27;;;5.67;;
6111;SDS011;3086;48.802;9.394;2022-11-12T08:16:03;7.30;;;5.60;;
6111;SDS011;3086;48.802;9.394;2022-11-12T08:19:26;6.23;;;5.33;;
6111;SDS011;3086;48.802;9.394;2022-11-12T08:22:47;7.27;;;5.77;;
6111;SDS011;3086;48.802;9.394;2022-11-12T08:26:10;6.53;;;5.83;;
6111;SDS011;3086;48.802;9.394;2022-11-12T08:29:33;6.23;;;5.00;;
6111;SDS011;3086;48.802;9.394;2022-11-12T08:32:55;6.83;;;5.23;;
6111;SDS011;3086;48.802;9.394;2022-11-12T08:36:19;8.63;;;6.27;;
6111;SDS011;3086;48.802;9.394;2022-11-12T08:39:40;6.70;;;5.87;;
6111;SDS011;3086;48.802;9.394;2022-11-12T08:43:03;9.33;;;5.80;;
6111;SDS011;3086;48.802;9.394;2022-11-12T08:46:25;8.53;;;5.90;;
6111;SDS011;3086;48.802;9.394;2022-11-12T08:49:47;7.17;;;4.93;;
6111;SDS011;3086;48.802;9.394;2022-11-12T08:53:10;6.90;;;5.43;;
6111;SDS011;3086;48.802;9.394;2022-11-12T08:56:36;6.20;;;5.50;;
6111;SDS011;3086;48.802;9.394;2022-11-12T08:59:58;6.37;;;5.70;;
6111;SDS011;3086;48.802;9.394;2022-11-12T09:03:22;7.00;;;5.63;;
6111;SDS011;3086;48.802;9.394;2022-11-12T09:06:45;5.90;;;5.30;;
6111;SDS011;3086;48.802;9.394;2022-11-12T09:10:08;6.93;;;5.80;;
6111;SDS011;3086;48.802;9.394;2022-11-12T09:13:30;7.17;;;5.67;;
6111;SDS011;3086;48.802;9.394;2022-11-12T09:16:51;5.53;;;5.00;;
6111;SDS011;3086;48.802;9.394;2022-11-12T09:20:13;5.83;;;5.17;;
6111;SDS011;3086;48.802;9.394;2022-11-12T09:23:35;8.13;;;5.60;;
6111;SDS011;3086;48.802;9.394;2022-11-12T09:26:58;7.10;;;5.60;;
6111;SDS011;3086;48.802;9.394;2022-11-12T09:30:20;5.83;;;5.00;;
6111;SDS011;3086;48.802;9.394;2022-11-12T09:33:41;6.33;;;4.87;;
6111;SDS011;3086;48.802;9.394;2022-11-12T09:37:03;5.77;;;5.23;;
6111;SDS011;3086;48.802;9.394;2022-11-12T09:40:27;5.40;;;4.87;;
6111;SDS011;3086;48.802;9.394;2022-11-12T09:44:02;6.67;;;4.70;;
6111;SDS011;3086;48.802;9.394;2022-11-12T09:47:25;5.63;;;4.93;;
6111;SDS011;3086;48.802;9.394;2022-11-12T09:50:52;6.20;;;5.50;;
6111;SDS011;3086;48.802;9.394;2022-11-12T09:54:19;5.33;;;4.83;;
6111;SDS011;3086;48.802;9.394;2022-11-12T09:57:42;6.13;;;5.30;;
6111;SDS011;3086;48.802;9.394;2022-11-12T10:01:09;6.10;;;5.20;;
6111;SDS011;3086;48.802;9.394;2022-11-12T10:04:37;5.00;;;4.60;;
6111;SDS011;3086;48.802;9.394;2022-11-12T10:08:27;5.53;;;4.83;;
6111;SDS011;3086;48.802;9.394;2022-11-12T10:12:01;5.77;;;5.10;;
6111;SDS011;3086;48.802;9.394;2022-11-12T10:15:44;5.43;;;4.93;;
6111;SDS011;3086;48.802;9.394;2022-11-12T10:19:32;6.73;;;5.10;;
6111;SDS011;3086;48.802;9.394;2022-11-12T10:23:05;5.80;;;5.20;;
6111;SDS011;3086;48.802;9.394;2022-11-12T10:26:35;5.43;;;4.93;;
6111;SDS011;3086;48.802;9.394;2022-11-12T10:29:58;5.70;;;5.10;;
6111;SDS011;3086;48.802;9.394;2022-11-12T10:33:22;6.53;;;5.57;;
6111;SDS011;3086;48.802;9.394;2022-11-12T10:36:45;5.70;;;5.13;;
6111;SDS011;3086;48.802;9.394;2022-11-12T10:40:24;6.53;;;4.90;;
6111;SDS011;3086;48.802;9.394;2022-11-12T10:43:52;6.33;;;5.13;;
6111;SDS011;3086;48.802;9.394;2022-11-12T10:47:25;6.00;;;5.40;;
6111;SDS011;3086;48.802;9.394;2022-11-12T10:50:48;6.20;;;5.10;;
6111;SDS011;3086;48.802;9.394;2022-11-12T10:54:29;7.60;;;5.27;;
6111;SDS011;3086;48.802;9.394;2022-11-12T11:01:39;5.23;;;4.73;;
6111;SDS011;3086;48.802;9.394;2022-11-12T11:08:48;6.07;;;4.93;;
6111;SDS011;3086;48.802;9.394;2022-11-12T11:12:22;6.60;;;5.40;;
6111;SDS011;3086;48.802;9.394;2022-11-12T11:15:56;5.27;;;4.77;;
6111;SDS011;3086;48.802;9.394;2022-11-12T11:19:18;5.33;;;4.83;;
6111;SDS011;3086;48.802;9.394;2022-11-12T11:22:40;6.03;;;5.00;;
6111;SDS011;3086;48.802;9.394;2022-11-12T11:26:06;6.77;;;5.00;;
6111;SDS011;3086;48.802;9.394;2022-11-12T11:33:30;5.77;;;5.20;;
6111;SDS011;3086;48.802;9.394;2022-11-12T11:36:58;7.00;;;5.17;;
6111;SDS011;3086;48.802;9.394;2022-11-12T11:40:23;7.10;;;5.03;;
6111;SDS011;3086;48.802;9.394;2022-11-12T11:43:50;5.73;;;5.23;;
6111;SDS011;3086;48.802;9.394;2022-11-12T11:47:23;5.10;;;4.63;;
6111;SDS011;3086;48.802;9.394;2022-11-12T11:50:53;6.17;;;4.57;;
6111;SDS011;3086;48.802;9.394;2022-11-12T11:54:33;5.93;;;5.00;;
6111;SDS011;3086;48.802;9.394;2022-11-12T11:58:05;5.90;;;4.77;;
6111;SDS011;3086;48.802;9.394;2022-11-12T12:01:35;6.10;;;5.03;;
6111;SDS011;3086;48.802;9.394;2022-11-12T12:05:04;7.63;;;5.40;;
6111;SDS011;3086;48.802;9.394;2022-11-12T12:08:35;5.73;;;5.13;;
6111;SDS011;3086;48.802;9.394;2022-11-12T12:12:10;5.63;;;4.60;;
6111;SDS011;3086;48.802;9.394;2022-11-12T12:15:39;7.13;;;5.27;;
6111;SDS011;3086;48.802;9.394;2022-11-12T12:19:10;6.80;;;4.73;;
6111;SDS011;3086;48.802;9.394;2022-11-12T12:22:39;5.17;;;4.67;;
6111;SDS011;3086;48.802;9.394;2022-11-12T12:26:04;5.70;;;4.40;;
6111;SDS011;3086;48.802;9.394;2022-11-12T12:29:31;6.77;;;5.50;;
6111;SDS011;3086;48.802;9.394;2022-11-12T12:32:55;6.50;;;5.10;;
6111;SDS011;3086;48.802;9.394;2022-11-12T12:36:22;6.13;;;5.13;;
6111;SDS011;3086;48.802;9.394;2022-11-12T12:39:50;7.30;;;5.70;;
6111;SDS011;3086;48.802;9.394;2022-11-12T12:43:16;6.83;;;5.50;;
6111;SDS011;3086;48.802;9.394;2022-11-12T12:46:41;6.40;;;5.00;;
6111;SDS011;3086;48.802;9.394;2022-11-12T12:50:04;5.90;;;5.27;;
6111;SDS011;3086;48.802;9.394;2022-11-12T12:53:31;7.03;;;4.80;;
6111;SDS011;3086;48.802;9.394;2022-11-12T12:56:55;6.63;;;5.33;;
6111;SDS011;3086;48.802;9.394;2022-11-12T13:04:02;8.03;;;5.50;;
6111;SDS011;3086;48.802;9.394;2022-11-12T13:07:37;13.37;;;9.50;;
6111;SDS011;3086;48.802;9.394;2022-11-12T13:11:00;5.77;;;5.23;;
6111;SDS011;3086;48.802;9.394;2022-11-12T13:18:26;7.27;;;6.00;;
6111;SDS011;3086;48.802;9.394;2022-11-12T13:22:33;6.30;;;5.70;;
6111;SDS011;3086;48.802;9.394;2022-11-12T13:30:10;7.43;;;5.37;;
6111;SDS011;3086;48.802;9.394;2022-11-12T13:34:12;5.77;;;5.27;;
6111;SDS011;3086;48.802;9.394;2022-11-12T13:37:41;5.87;;;5.27;;
6111;SDS011;3086;48.802;9.394;2022-11-12T13:41:05;10.30;;;5.57;;
6111;SDS011;3086;48.802;9.394;2022-11-12T13:44:29;7.43;;;5.60;;
6111;SDS011;3086;48.802;9.394;2022-11-12T13:47:51;9.00;;;5.50;;
6111;SDS011;3086;48.802;9.394;2022-11-12T13:51:15;8.50;;;5.47;;
6111;SDS011;3086;48.802;9.394;2022-11-12T13:54:38;7.00;;;5.80;;
6111;SDS011;3086;48.802;9.394;2022-11-12T13:58:00;7.67;;;5.93;;
6111;SDS011;3086;48.802;9.394;2022-11-12T14:01:22;7.00;;;6.00;;
6111;SDS011;3086;48.802;9.394;2022-11-12T14:05:09;8.40;;;6.07;;
6111;SDS011;3086;48.802;9.394;2022-11-12T14:08:42;6.20;;;5.53;;
6111;SDS011;3086;48.802;9.394;2022-11-12T14:12:15;7.30;;;6.20;;
6111;SDS011;3086;48.802;9.394;2022-11-12T14:15:53;7.07;;;5.93;;
6111;SDS011;3086;48.802;9.394;2022-11-12T14:19:24;9.17;;;7.43;;
6111;SDS011;3086;48.802;9.394;2022-11-12T14:22:52;9.53;;;7.27;;
6111;SDS011;3086;48.802;9.394;2022-11-12T14:33:42;8.07;;;6.20;;
6111;SDS011;3086;48.802;9.394;2022-11-12T14:37:03;7.43;;;6.60;;
6111;SDS011;3086;48.802;9.394;2022-11-12T14:40:26;7.80;;;6.97;;
6111;SDS011;3086;48.802;9.394;2022-11-12T14:43:52;7.40;;;6.47;;
6111;SDS011;3086;48.802;9.394;2022-11-12T14:47:15;8.73;;;6.70;;
6111;SDS011;3086;48.802;9.394;2022-11-12T14:50:38;10.80;;;6.87;;
6111;SDS011;3086;48.802;9.394;2022-11-12T14:54:01;7.40;;;6.63;;
6111;SDS011;3086;48.802;9.394;2022-11-12T14:57:24;8.57;;;6.87;;
6111;SDS011;3086;48.802;9.394;2022-11-12T15:00:48;7.60;;;6.80;;
6111;SDS011;3086;48.802;9.394;2022-11-12T15:04:16;7.80;;;6.80;;
6111;SDS011;3086;48.802;9.394;2022-11-12T15:07:49;7.70;;;6.97;;
6111;SDS011;3086;48.802;9.394;2022-11-12T15:11:16;9.33;;;7.00;;
6111;SDS011;3086;48.802;9.394;2022-11-12T15:14:41;8.07;;;7.17;;
6111;SDS011;3086;48.802;9.394;2022-11-12T15:18:04;8.43;;;7.17;;
6111;SDS011;3086;48.802;9.394;2022-11-12T15:21:28;10.47;;;7.40;;
6111;SDS011;3086;48.802;9.394;2022-11-12T15:24:50;10.17;;;7.00;;
6111;SDS011;3086;48.802;9.394;2022-11-12T15:28:12;11.77;;;7.43;;
6111;SDS011;3086;48.802;9.394;2022-11-12T15:31:40;8.17;;;7.13;;
6111;SDS011;3086;48.802;9.394;2022-11-12T15:35:18;7.93;;;7.13;;
6111;SDS011;3086;48.802;9.394;2022-11-12T15:38:40;13.03;;;7.43;;
6111;SDS011;3086;48.802;9.394;2022-11-12T15:42:12;8.37;;;7.37;;
6111;SDS011;3086;48.802;9.394;2022-11-12T15:45:35;8.33;;;7.30;;
6111;SDS011;3086;48.802;9.394;2022-11-12T15:48:57;10.40;;;7.70;;
6111;SDS011;3086;48.802;9.394;2022-11-12T15:52:22;7.83;;;7.03;;
6111;SDS011;3086;48.802;9.394;2022-11-12T15:55:44;9.80;;;8.10;;
6111;SDS011;3086;48.802;9.394;2022-11-12T15:59:07;11.33;;;7.70;;
6111;SDS011;3086;48.802;9.394;2022-11-12T16:02:30;13.83;;;7.50;;
6111;SDS011;3086;48.802;9.394;2022-11-12T16:05:52;9.00;;;7.60;;
6111;SDS011;3086;48.802;9.394;2022-11-12T16:09:15;9.63;;;8.10;;
6111;SDS011;3086;48.802;9.394;2022-11-12T16:12:37;10.47;;;7.90;;
6111;SDS011;3086;48.802;9.394;2022-11-12T16:15:59;10.73;;;8.30;;
6111;SDS011;3086;48.802;9.394;2022-11-12T16:19:21;10.00;;;8.63;;
6111;SDS011;3086;48.802;9.394;2022-11-12T16:22:43;13.77;;;8.97;;
6111;SDS011;3086;48.802;9.394;2022-11-12T16:26:06;12.10;;;8.20;;
6111;SDS011;3086;48.802;9.394;2022-11-12T16:29:29;11.43;;;9.20;;
6111;SDS011;3086;48.802;9.394;2022-11-12T16:32:51;11.60;;;9.70;;
6111;SDS011;3086;48.802;9.394;2022-11-12T16:36:13;12.63;;;8.37;;
6111;SDS011;3086;48.802;9.394;2022-11-12T16:39:35;12.77;;;8.87;;
6111;SDS011;3086;48.802;9.394;2022-11-12T16:42:58;14.10;;;11.77;;
6111;SDS011;3086;48.802;9.394;2022-11-12T16:46:21;19.93;;;13.57;;
6111;SDS011;3086;48.802;9.394;2022-11-12T16:49:45;17.33;;;12.00;;
6111;SDS011;3086;48.802;9.394;2022-11-12T16:53:06;16.40;;;13.43;;
6111;SDS011;3086;48.802;9.394;2022-11-12T16:56:30;15.37;;;13.17;;
6111;SDS011;3086;48.802;9.394;2022-11-12T16:59:53;15.07;;;12.70;;
6111;SDS011;3086;48.802;9.394;2022-11-12T17:03:15;15.13;;;11.97;;
6111;SDS011;3086;48.802;9.394;2022-11-12T17:06:37;21.63;;;14.10;;
6111;SDS011;3086;48.802;9.394;2022-11-12T17:10:00;20.17;;;14.47;;
6111;SDS011;3086;48.802;9.394;2022-11-12T17:13:22;17.07;;;14.50;;
6111;SDS011;3086;48.802;9.394;2022-11-12T17:16:46;20.53;;;14.43;;
6111;SDS011;3086;48.802;9.394;2022-11-12T17:20:08;16.07;;;12.53;;
6111;SDS011;3086;48.802;9.394;2022-11-12T17:23:30;21.53;;;14.00;;
6111;SDS011;3086;48.802;9.394;2022-11-12T17:26:51;24.87;;;16.83;;
6111;SDS011;3086;48.802;9.394;2022-11-12T17:30:13;18.73;;;15.87;;
6111;SDS011;3086;48.802;9.394;2022-11-12T17:33:40;18.93;;;13.57;;
6111;SDS011;3086;48.802;9.394;2022-11-12T17:37:02;13.50;;;12.07;;
6111;SDS011;3086;48.802;9.394;2022-11-12T17:40:24;13.20;;;11.53;;
6111;SDS011;3086;48.802;9.394;2022-11-12T17:43:46;15.70;;;12.43;;
6111;SDS011;3086;48.802;9.394;2022-11-12T17:47:07;17.07;;;12.70;;
6111;SDS011;3086;48.802;9.394;2022-11-12T17:50:30;15.30;;;13.60;;
6111;SDS011;3086;48.802;9.394;2022-11-12T17:53:52;18.47;;;14.17;;
6111;SDS011;3086;48.802;9.394;2022-11-12T17:57:14;14.93;;;11.67;;
6111;SDS011;3086;48.802;9.394;2022-11-12T18:00:36;11.10;;;9.40;;
6111;SDS011;3086;48.802;9.394;2022-11-12T18:03:59;13.47;;;9.93;;
6111;SDS011;3086;48.802;9.394;2022-11-12T18:07:22;11.90;;;9.80;;
6111;SDS011;3086;48.802;9.394;2022-11-12T18:10:43;11.20;;;9.70;;
6111;SDS011;3086;48.802;9.394;2022-11-12T18:14:05;9.53;;;8.50;;
6111;SDS011;3086;48.802;9.394;2022-11-12T18:17:27;9.43;;;7.57;;
6111;SDS011;3086;48.802;9.394;2022-11-12T18:20:49;9.37;;;7.47;;
6111;SDS011;3086;48.802;9.394;2022-11-12T18:24:13;13.73;;;9.37;;
6111;SDS011;3086;48.802;9.394;2022-11-12T18:27:35;10.63;;;8.70;;
6111;SDS011;3086;48.802;9.394;2022-11-12T18:30:58;8.43;;;6.77;;
6111;SDS011;3086;48.802;9.394;2022-11-12T18:34:20;10.10;;;9.00;;
6111;SDS011;3086;48.802;9.394;2022-11-12T18:37:42;9.60;;;8.60;;
6111;SDS011;3086;48.802;9.394;2022-11-12T18:41:05;9.53;;;8.33;;
6111;SDS011;3086;48.802;9.394;2022-11-12T18:44:28;10.60;;;8.90;;
6111;SDS011;3086;48.802;9.394;2022-11-12T18:47:49;11.57;;;8.90;;
6111;SDS011;3086;48.802;9.394;2022-11-12T18:51:12;9.90;;;8.80;;
6111;SDS011;3086;48.802;9.394;2022-11-12T18:54:34;10.50;;;8.87;;
6111;SDS011;3086;48.802;9.394;2022-11-12T18:57:57;13.03;;;9.33;;
6111;SDS011;3086;48.802;9.394;2022-11-12T19:01:19;13.43;;;9.97;;
6111;SDS011;3086;48.802;9.394;2022-11-12T19:04:43;13.90;;;9.33;;
6111;SDS011;3086;48.802;9.394;2022-11-12T19:08:05;9.90;;;8.83;;
6111;SDS011;3086;48.802;9.394;2022-11-12T19:11:27;13.27;;;10.17;;
6111;SDS011;3086;48.802;9.394;2022-11-12T19:14:50;12.67;;;9.20;;
6111;SDS011;3086;48.802;9.394;2022-11-12T19:18:12;12.53;;;8.70;;
6111;SDS011;3086;48.802;9.394;2022-11-12T19:21:34;10.37;;;8.40;;
6111;SDS011;3086;48.802;9.394;2022-11-12T19:24:57;11.57;;;8.47;;
6111;SDS011;3086;48.802;9.394;2022-11-12T19:28:21;10.93;;;7.83;;
6111;SDS011;3086;48.802;9.394;2022-11-12T19:31:46;10.07;;;8.33;;
6111;SDS011;3086;48.802;9.394;2022-11-12T19:35:08;11.87;;;9.37;;
6111;SDS011;3086;48.802;9.394;2022-11-12T19:38:30;10.03;;;7.77;;
6111;SDS011;3086;48.802;9.394;2022-11-12T19:41:51;8.80;;;7.83;;
6111;SDS011;3086;48.802;9.394;2022-11-12T19:45:13;9.87;;;7.53;;
6111;SDS011;3086;48.802;9.394;2022-11-12T19:48:37;9.87;;;8.63;;
6111;SDS011;3086;48.802;9.394;2022-11-12T19:51:58;8.93;;;7.70;;
6111;SDS011;3086;48.802;9.394;2022-11-12T19:55:20;11.57;;;8.03;;
6111;SDS011;3086;48.802;9.394;2022-11-12T19:58:44;11.97;;;7.93;;
6111;SDS011;3086;48.802;9.394;2022-11-12T20:02:07;11.87;;;7.53;;
6111;SDS011;3086;48.802;9.394;2022-11-12T20:05:35;11.20;;;7.63;;
6111;SDS011;3086;48.802;9.394;2022-11-12T20:08:57;9.47;;;8.30;;
6111;SDS011;3086;48.802;9.394;2022-11-12T20:12:19;13.47;;;10.17;;
6111;SDS011;3086;48.802;9.394;2022-11-12T20:15:40;11.03;;;8.77;;
6111;SDS011;3086;48.802;9.394;2022-11-12T20:19:02;12.00;;;10.13;;
6111;SDS011;3086;48.802;9.394;2022-11-12T20:22:27;11.67;;;10.43;;
6111;SDS011;3086;48.802;9.394;2022-11-12T20:25:50;13.90;;;10.00;;
6111;SDS011;3086;48.802;9.394;2022-11-12T20:29:11;12.57;;;10.37;;
6111;SDS011;3086;48.802;9.394;2022-11-12T20:32:33;11.57;;;9.40;;
6111;SDS011;3086;48.802;9.394;2022-11-12T20:36:01;10.67;;;9.50;;
6111;SDS011;3086;48.802;9.394;2022-11-12T20:39:25;11.00;;;7.80;;
6111;SDS011;3086;48.802;9.394;2022-11-12T20:42:47;13.60;;;7.37;;
6111;SDS011;3086;48.802;9.394;2022-11-12T20:46:10;9.77;;;7.43;;
6111;SDS011;3086;48.802;9.394;2022-11-12T20:49:32;9.43;;;7.77;;
6111;SDS011;3086;48.802;9.394;2022-11-12T20:52:54;15.73;;;11.87;;
6111;SDS011;3086;48.802;9.394;2022-11-12T20:56:17;24.90;;;16.83;;
6111;SDS011;3086;48.802;9.394;2022-11-12T20:59:42;30.70;;;20.87;;
6111;SDS011;3086;48.802;9.394;2022-11-12T21:03:04;22.83;;;16.70;;
6111;SDS011;3086;48.802;9.394;2022-11-12T21:06:27;14.93;;;10.33;;
6111;SDS011;3086;48.802;9.394;2022-11-12T21:09:49;14.50;;;11.40;;
6111;SDS011;3086;48.802;9.394;2022-11-12T21:13:12;25.10;;;16.47;;
6111;SDS011;3086;48.802;9.394;2022-11-12T21:16:35;11.37;;;9.90;;
6111;SDS011;3086;48.802;9.394;2022-11-12T21:19:56;9.50;;;7.13;;
6111;SDS011;3086;48.802;9.394;2022-11-12T21:23:18;8.03;;;7.20;;
6111;SDS011;3086;48.802;9.394;2022-11-12T21:26:40;9.63;;;8.13;;
6111;SDS011;3086;48.802;9.394;2022-11-12T21:30:04;13.23;;;7.93;;